Time,TemperatureF,DewpointF,PressureIn,WindDirection,WindDirectionDegrees,WindSpeedMPH,WindSpeedGustMPH,Humidity,HourlyPrecipIn,Conditions,Clouds,dailyrainin,SolarRadiationWatts/m^2,SoftwareType,DateUTC
2013-08-10 00:02:00,78.0,71.0,-100.00,East,97,2.0,4.0,80,0.00,,,0.00,0.000000,,2013-08-10 05:02:00,
2013-08-10 00:22:00,78.0,71.0,-100.00,East,97,2.0,4.0,80,0.00,,,0.00,0.000000,,2013-08-10 05:22:00,
2013-08-10 00:32:00,78.0,71.0,-100.00,East,97,2.0,4.0,80,0.00,,,0.00,0.000000,,2013-08-10 05:32:00,
2013-08-10 00:43:00,78.0,71.0,-100.00,East,97,2.0,4.0,80,0.00,,,0.00,0.000000,,2013-08-10 05:43:00,
2013-08-10 00:52:00,78.0,71.0,-100.00,East,97,2.0,4.0,80,0.00,,,0.00,0.000000,,2013-08-10 05:52:00,
2013-08-10 01:02:00,78.0,72.0,-100.00,ENE,70,1.0,3.0,81,0.00,,,0.00,0.000000,,2013-08-10 06:02:00,
2013-08-10 01:22:00,78.0,72.0,-100.00,ENE,70,1.0,3.0,81,0.00,,,0.00,0.000000,,2013-08-10 06:22:00,
2013-08-10 01:32:00,78.0,72.0,-100.00,ENE,70,1.0,3.0,81,0.00,,,0.00,0.000000,,2013-08-10 06:32:00,
2013-08-10 01:44:00,78.0,72.0,-100.00,ENE,70,1.0,3.0,81,0.00,,,0.00,0.000000,,2013-08-10 06:44:00,
2013-08-10 01:53:00,78.0,72.0,-100.00,ENE,70,1.0,3.0,81,0.00,,,0.00,0.000000,,2013-08-10 06:53:00,
2013-08-10 02:22:00,77.0,71.0,-100.00,ESE,109,1.0,4.0,82,0.00,,,0.00,0.000000,,2013-08-10 07:22:00,
2013-08-10 02:33:00,77.0,71.0,-100.00,ESE,109,1.0,4.0,82,0.00,,,0.00,0.000000,,2013-08-10 07:33:00,
2013-08-10 02:43:00,77.0,71.0,-100.00,ESE,109,1.0,4.0,82,0.00,,,0.00,0.000000,,2013-08-10 07:43:00,
2013-08-10 02:52:00,77.0,71.0,-100.00,ESE,109,1.0,4.0,82,0.00,,,0.00,0.000000,,2013-08-10 07:52:00,
2013-08-10 03:01:00,77.0,71.0,-100.00,ESE,109,1.0,4.0,82,0.00,,,0.00,0.000000,,2013-08-10 08:01:00,
2013-08-10 03:02:00,77.0,71.0,-100.00,ENE,77,1.0,4.0,82,0.00,,,0.00,0.000000,,2013-08-10 08:02:00,
2013-08-10 03:22:00,77.0,71.0,-100.00,ENE,77,1.0,4.0,82,0.00,,,0.00,0.000000,,2013-08-10 08:22:00,
2013-08-10 03:32:00,77.0,71.0,-100.00,ENE,77,1.0,4.0,82,0.00,,,0.00,0.000000,,2013-08-10 08:32:00,
2013-08-10 03:43:00,77.0,71.0,-100.00,ENE,77,1.0,4.0,82,0.00,,,0.00,0.000000,,2013-08-10 08:43:00,
2013-08-10 03:53:00,77.0,71.0,-100.00,ENE,77,1.0,4.0,82,0.00,,,0.00,0.000000,,2013-08-10 08:53:00,
2013-08-10 04:02:00,76.0,71.0,-100.00,ESE,114,0.0,2.0,85,0.00,,,0.00,0.000000,,2013-08-10 09:02:00,
2013-08-10 04:22:00,76.0,71.0,-100.00,ESE,114,0.0,2.0,85,0.00,,,0.00,0.000000,,2013-08-10 09:22:00,
2013-08-10 04:32:00,76.0,71.0,-100.00,ESE,114,0.0,2.0,85,0.00,,,0.00,0.000000,,2013-08-10 09:32:00,
2013-08-10 04:43:00,76.0,71.0,-100.00,ESE,114,0.0,2.0,85,0.00,,,0.00,0.000000,,2013-08-10 09:43:00,
2013-08-10 04:52:00,76.0,71.0,-100.00,ESE,114,0.0,2.0,85,0.00,,,0.00,0.000000,,2013-08-10 09:52:00,
2013-08-10 05:02:00,75.0,71.0,-100.00,SE,140,1.0,2.0,88,0.00,,,0.00,0.000000,,2013-08-10 10:02:00,
2013-08-10 05:22:00,75.0,71.0,-100.00,SE,140,1.0,2.0,88,0.00,,,0.00,0.000000,,2013-08-10 10:22:00,
2013-08-10 05:33:00,75.0,71.0,-100.00,SE,140,1.0,2.0,88,0.00,,,0.00,0.000000,,2013-08-10 10:33:00,
2013-08-10 05:44:00,75.0,71.0,-100.00,SE,140,1.0,2.0,88,0.00,,,0.00,0.000000,,2013-08-10 10:44:00,
2013-08-10 05:53:00,75.0,71.0,-100.00,SE,140,1.0,2.0,88,0.00,,,0.00,0.000000,,2013-08-10 10:53:00,
2013-08-10 09:02:00,84.0,74.0,-100.00,East,99,3.0,5.0,73,-99.99,,,0.00,304.000000,,2013-08-10 14:02:00,
2013-08-10 09:22:00,84.0,74.0,-100.00,East,99,3.0,5.0,73,-99.99,,,0.00,304.000000,,2013-08-10 14:22:00,
2013-08-10 09:33:00,84.0,74.0,-100.00,East,99,3.0,5.0,73,-99.99,,,0.00,304.000000,,2013-08-10 14:33:00,
2013-08-10 09:43:00,84.0,74.0,-100.00,East,99,3.0,5.0,73,-99.99,,,0.00,304.000000,,2013-08-10 14:43:00,
2013-08-10 09:53:00,84.0,74.0,-100.00,East,99,3.0,5.0,73,-99.99,,,0.00,304.000000,,2013-08-10 14:53:00,
2013-08-10 10:22:00,88.0,74.0,-100.00,East,100,3.0,5.0,63,0.00,,,-99.99,521.000000,,2013-08-10 15:22:00,
2013-08-10 10:34:00,88.0,74.0,-100.00,East,100,3.0,5.0,63,0.00,,,-99.99,521.000000,,2013-08-10 15:34:00,
2013-08-10 10:43:00,88.0,74.0,-100.00,East,100,3.0,5.0,63,0.00,,,-99.99,521.000000,,2013-08-10 15:43:00,
2013-08-10 10:52:00,88.0,74.0,-100.00,East,100,3.0,5.0,63,0.00,,,-99.99,521.000000,,2013-08-10 15:52:00,
2013-08-10 11:01:00,88.0,74.0,-100.00,East,100,3.0,5.0,63,0.00,,,-99.99,521.000000,,2013-08-10 16:01:00,
2013-08-10 11:02:00,91.0,74.0,-100.00,ENE,77,3.0,6.0,58,0.00,,,0.00,724.000000,,2013-08-10 16:02:00,
2013-08-10 11:22:00,91.0,74.0,-100.00,ENE,77,3.0,6.0,58,0.00,,,0.00,724.000000,,2013-08-10 16:22:00,
2013-08-10 11:32:00,91.0,74.0,-100.00,ENE,77,3.0,6.0,58,0.00,,,0.00,724.000000,,2013-08-10 16:32:00,
2013-08-10 11:43:00,91.0,74.0,-100.00,ENE,77,3.0,6.0,58,0.00,,,0.00,724.000000,,2013-08-10 16:43:00,
2013-08-10 11:53:00,91.0,74.0,-100.00,ENE,77,3.0,6.0,58,0.00,,,0.00,724.000000,,2013-08-10 16:53:00,
2013-08-10 12:22:00,93.0,75.0,-100.00,SE,129,3.0,10.0,56,0.00,,,0.00,876.000000,,2013-08-10 17:22:00,
2013-08-10 12:33:00,93.0,75.0,-100.00,SE,129,3.0,10.0,56,0.00,,,0.00,876.000000,,2013-08-10 17:33:00,
2013-08-10 12:43:00,93.0,75.0,-100.00,SE,129,3.0,10.0,56,0.00,,,0.00,876.000000,,2013-08-10 17:43:00,
2013-08-10 12:52:00,93.0,75.0,-100.00,SE,129,3.0,10.0,56,0.00,,,0.00,876.000000,,2013-08-10 17:52:00,
2013-08-10 13:01:00,93.0,75.0,-100.00,SE,129,3.0,10.0,56,0.00,,,0.00,876.000000,,2013-08-10 18:01:00,
2013-08-10 13:02:00,96.0,74.0,-100.00,SSE,154,3.0,6.0,49,0.00,,,0.00,960.000000,,2013-08-10 18:02:00,
2013-08-10 13:23:00,96.0,74.0,-100.00,SSE,154,3.0,6.0,49,0.00,,,0.00,960.000000,,2013-08-10 18:23:00,
2013-08-10 13:32:00,96.0,74.0,-100.00,SSE,154,3.0,6.0,49,0.00,,,0.00,960.000000,,2013-08-10 18:32:00,
2013-08-10 13:44:00,96.0,74.0,-100.00,SSE,154,3.0,6.0,49,0.00,,,0.00,960.000000,,2013-08-10 18:44:00,
2013-08-10 13:52:00,96.0,74.0,-100.00,SSE,154,3.0,6.0,49,0.00,,,0.00,960.000000,,2013-08-10 18:52:00,
2013-08-10 14:02:00,96.0,75.0,-100.00,South,170,2.0,6.0,52,0.00,,,0.00,795.000000,,2013-08-10 19:02:00,
2013-08-10 14:22:00,96.0,75.0,-100.00,South,170,2.0,6.0,52,0.00,,,0.00,795.000000,,2013-08-10 19:22:00,
2013-08-10 14:33:00,96.0,75.0,-100.00,South,170,2.0,6.0,52,0.00,,,0.00,795.000000,,2013-08-10 19:33:00,
2013-08-10 14:44:00,96.0,75.0,-100.00,South,170,2.0,6.0,52,0.00,,,0.00,795.000000,,2013-08-10 19:44:00,
2013-08-10 14:53:00,96.0,75.0,-100.00,South,170,2.0,6.0,52,0.00,,,0.00,795.000000,,2013-08-10 19:53:00,
2013-08-10 15:02:00,94.0,74.0,-100.00,SSW,212,2.0,7.0,53,0.00,,,0.00,530.000000,,2013-08-10 20:02:00,
2013-08-10 15:22:00,94.0,74.0,-100.00,SSW,212,2.0,7.0,53,0.00,,,0.00,530.000000,,2013-08-10 20:22:00,
2013-08-10 15:33:00,94.0,74.0,-100.00,SSW,212,2.0,7.0,53,0.00,,,0.00,530.000000,,2013-08-10 20:33:00,
2013-08-10 15:43:00,94.0,74.0,-100.00,SSW,212,2.0,7.0,53,0.00,,,0.00,530.000000,,2013-08-10 20:43:00,
2013-08-10 15:53:00,94.0,74.0,-100.00,SSW,212,2.0,7.0,53,0.00,,,0.00,530.000000,,2013-08-10 20:53:00,
2013-08-10 16:22:00,98.0,73.0,-100.00,SSE,166,2.0,4.0,45,0.00,,,0.00,670.000000,,2013-08-10 21:22:00,
2013-08-10 16:32:00,98.0,73.0,-100.00,SSE,166,2.0,4.0,45,0.00,,,0.00,670.000000,,2013-08-10 21:32:00,
2013-08-10 16:42:00,98.0,73.0,-100.00,SSE,166,2.0,4.0,45,0.00,,,0.00,670.000000,,2013-08-10 21:42:00,
2013-08-10 16:52:00,98.0,73.0,-100.00,SSE,166,2.0,4.0,45,0.00,,,0.00,670.000000,,2013-08-10 21:52:00,
2013-08-10 17:01:00,98.0,73.0,-100.00,SSE,166,2.0,4.0,45,0.00,,,0.00,670.000000,,2013-08-10 22:01:00,
2013-08-10 17:21:00,97.0,72.0,-100.00,West,272,4.0,7.0,45,0.00,,,0.00,668.000000,,2013-08-10 22:21:00,
2013-08-10 17:32:00,97.0,72.0,-100.00,West,272,4.0,7.0,45,0.00,,,0.00,668.000000,,2013-08-10 22:32:00,
2013-08-10 17:43:00,97.0,72.0,-100.00,West,272,4.0,7.0,45,0.00,,,0.00,668.000000,,2013-08-10 22:43:00,
2013-08-10 17:52:00,97.0,72.0,-100.00,West,272,4.0,7.0,45,0.00,,,0.00,668.000000,,2013-08-10 22:52:00,
2013-08-10 18:01:00,97.0,72.0,-100.00,West,272,4.0,7.0,45,0.00,,,0.00,668.000000,,2013-08-10 23:01:00,
2013-08-10 18:02:00,96.0,74.0,-100.00,WNW,291,4.0,8.0,50,0.00,,,0.00,465.000000,,2013-08-10 23:02:00,
2013-08-10 18:22:00,96.0,74.0,-100.00,WNW,291,4.0,8.0,50,0.00,,,0.00,465.000000,,2013-08-10 23:22:00,
2013-08-10 18:33:00,96.0,74.0,-100.00,WNW,291,4.0,8.0,50,0.00,,,0.00,465.000000,,2013-08-10 23:33:00,
2013-08-10 18:43:00,96.0,74.0,-100.00,WNW,291,4.0,8.0,50,0.00,,,0.00,465.000000,,2013-08-10 23:43:00,
2013-08-10 18:53:00,96.0,74.0,-100.00,WNW,291,4.0,8.0,50,0.00,,,0.00,465.000000,,2013-08-10 23:53:00,
2013-08-10 19:22:00,91.0,76.0,-100.00,North,1,3.0,8.0,61,0.00,,,0.00,234.000000,,2013-08-11 00:22:00,
2013-08-10 19:32:00,91.0,76.0,-100.00,North,1,3.0,8.0,61,0.00,,,0.00,234.000000,,2013-08-11 00:32:00,
2013-08-10 19:42:00,91.0,76.0,-100.00,North,1,3.0,8.0,61,0.00,,,0.00,234.000000,,2013-08-11 00:42:00,
2013-08-10 19:52:00,91.0,76.0,-100.00,North,1,3.0,8.0,61,0.00,,,0.00,234.000000,,2013-08-11 00:52:00,
2013-08-10 20:01:00,91.0,76.0,-100.00,North,1,3.0,8.0,61,0.00,,,0.00,234.000000,,2013-08-11 01:01:00,
2013-08-10 20:02:00,86.0,74.0,-100.00,NE,40,2.0,8.0,67,0.00,,,0.00,59.000000,,2013-08-11 01:02:00,
2013-08-10 20:22:00,86.0,74.0,-100.00,NE,40,2.0,8.0,67,0.00,,,0.00,59.000000,,2013-08-11 01:22:00,
2013-08-10 20:32:00,86.0,74.0,-100.00,NE,40,2.0,8.0,67,0.00,,,0.00,59.000000,,2013-08-11 01:32:00,
2013-08-10 20:43:00,86.0,74.0,-100.00,NE,40,2.0,8.0,67,0.00,,,0.00,59.000000,,2013-08-11 01:43:00,
2013-08-10 20:54:00,86.0,74.0,-100.00,NE,40,2.0,8.0,67,0.00,,,0.00,59.000000,,2013-08-11 01:54:00,
2013-08-10 21:02:00,81.0,75.0,-100.00,ESE,110,2.0,4.0,81,0.00,,,0.00,3.000000,,2013-08-11 02:02:00,
2013-08-10 21:22:00,81.0,75.0,-100.00,ESE,110,2.0,4.0,81,0.00,,,0.00,3.000000,,2013-08-11 02:22:00,
2013-08-10 21:32:00,81.0,75.0,-100.00,ESE,110,2.0,4.0,81,0.00,,,0.00,3.000000,,2013-08-11 02:32:00,
2013-08-10 21:43:00,81.0,75.0,-100.00,ESE,110,2.0,4.0,81,0.00,,,0.00,3.000000,,2013-08-11 02:43:00,
2013-08-10 21:57:00,81.0,75.0,-100.00,ESE,110,2.0,4.0,81,0.00,,,0.00,3.000000,,2013-08-11 02:57:00,
2013-08-10 22:29:00,81.0,74.0,-100.00,ESE,113,2.0,7.0,79,0.00,,,0.00,0.000000,,2013-08-11 03:29:00,
2013-08-10 22:36:00,81.0,74.0,-100.00,ESE,113,2.0,7.0,79,0.00,,,0.00,0.000000,,2013-08-11 03:36:00,
2013-08-10 22:46:00,81.0,74.0,-100.00,ESE,113,2.0,7.0,79,0.00,,,0.00,0.000000,,2013-08-11 03:46:00,
2013-08-10 22:56:00,81.0,74.0,-100.00,ESE,113,2.0,7.0,79,0.00,,,0.00,0.000000,,2013-08-11 03:56:00,
2013-08-10 23:01:00,81.0,74.0,-100.00,ESE,113,2.0,7.0,79,0.00,,,0.00,0.000000,,2013-08-11 04:01:00,
2013-08-10 23:02:00,78.0,72.0,-100.00,ENE,72,2.0,7.0,81,0.00,,,0.00,0.000000,,2013-08-11 04:02:00,
2013-08-10 23:22:00,78.0,72.0,-100.00,ENE,72,2.0,7.0,81,0.00,,,0.00,0.000000,,2013-08-11 04:22:00,
2013-08-10 23:32:00,78.0,72.0,-100.00,ENE,72,2.0,7.0,81,0.00,,,0.00,0.000000,,2013-08-11 04:32:00,
2013-08-10 23:43:00,78.0,72.0,-100.00,ENE,72,2.0,7.0,81,0.00,,,0.00,0.000000,,2013-08-11 04:43:00,
2013-08-10 23:53:00,78.0,72.0,-100.00,ENE,72,2.0,7.0,81,0.00,,,0.00,0.000000,,2013-08-11 04:53:00,